NCAR-RAP Real-Time Weather Data

Output produced by METARs form (21 May 2019  10:32 UTC)
found at http://weather.rap.ucar.edu/surface/
 
RJAH 211023Z 36010KT 2400 -SHRA BR FEW003 BKN006 OVC012 15/15 Q1001 RMK 2ST003 5ST006 8CU012 A2957 VIS S-W 1500M
RJAH 211000Z 35010KT 2000 -SHRA BR SCT003 OVC005 16/16 Q1001
RJAH 210935Z 36009KT 2000 SHRA BR SCT003 OVC005 17/17 Q1000 RMK 4ST003 8ST005 A2955 VIS S-W 1200M
RJAH 210926Z VRB04KT 2400 SHRA BR SCT003 BKN005 OVC008 20/19 Q1000 RMK 3ST003 7ST005 8ST008 A2955 VIS S-W 1500M
RJAH 210907Z 17006KT 2000 -SHRA BR SCT003 BKN005 OVC008 21/20 Q1000 RMK 3ST003 7ST005 8ST008 A2954 VIS S-W 1000M FCST AMD 0915 BECMG 0909 02008KT 8000 NSW FEW006ST SC012CU BKN030CU TEMPO 0912 2000 -SHRA BR SCT004ST BKN005ST
RJAH 210900Z 18006KT 4000 -SHRA BR SCT004 BKN006 OVC010 21/20 Q1000
RJAH 210810Z 18008KT 4000 -SHRA BR FEW004 BKN006 OVC010 21/20 Q1000 RMK 2ST004 5ST006 8ST010 A2953 VIS SW-N 1500M
RJAH 210803Z 18010KT 7000 -SHRA FEW004 SCT006 OVC010 21/20 Q1000 RMK 2ST004 3ST006 8ST010 A2954 VIS SW-N 2000M
RJAH 210800Z 18011KT 8000 -SHRA FEW008 BKN012 OVC030 20/20 Q1000
RJAH 210727Z 17015KT 9999 -SHRA FEW008 BKN012 OVC030 20/20 Q0999 RMK 2ST008 6CU012 8CU030 A2953
RJAH 210712Z 17014KT 3000 -SHRA BR FEW008 BKN012 OVC030 20/20 Q0999 RMK 2ST008 6CU012 8CU030 A2953 VIS S-NW 6KM
RJAH 210700Z 18013G23KT 150V210 1500 R21/P1800N SHRA FEW008 OVC010 20/20 Q1000
RJAH 210637Z 18010KT 1400 R21/P1800N SHRA FEW008 OVC010 20/20 Q1000 RMK 2ST008 8CU010 A2955 VIS SE-W 1000M
RJAH 210618Z 21006KT 1400 R21/1600D +SHRA FEW006 OVC008 20/19 Q1000 RMK 2ST006 8CU008 A2955 VIS SE-W 1000M
RJAH 210600Z 22013KT 1200 R21/P1800N +SHRA FEW005 OVC006 20/19 Q1000
RJAH 210527Z 18023G34KT 1200 R21/P1800N +SHRA FEW006 OVC008 20/19 Q1000 RMK 2ST006 8CU008 A2953 VIS SE-W 800M RI++
RJAH 210520Z 18022G34KT 1500 R21/P1800N +SHRA FEW006 BKN008 OVC012 20/19 Q0999 RMK 2ST006 6ST008 8CU012 A2953 VIS S-NW 1200M
RJAH 210515Z 17020G34KT 2000 +SHRA FEW006 BKN008 OVC012 20/19 Q0999 RMK 2ST006 6ST008 8CU012 A2952 VIS S-NW 1500M
RJAH 210500Z 17021G31KT 2400 SHRA BR FEW006 BKN008 OVC012 20/19 Q0999
RJAH 210437Z 17023G35KT 2400 SHRA BR FEW006 BKN008 OVC012 20/19 Q0999 RMK 1ST006 6ST008 8CU012 A2952 VIS SE-W 2000M
RJAH 210400Z 17022KT 2400 SHRA BR FEW006 BKN008 OVC012 20/19 Q1000
RJAH 210323Z 17021G33KT 2000 SHRA BR FEW006 BKN008 OVC012 20/19 Q1000 RMK 1ST006 6ST008 8CU012 A2955 VIS NW-NE 1800M
RJAH 210300Z 17023KT 1800 SHRA BR FEW006 BKN008 OVC012 20/19 Q1000
RJAH 210249Z 17022G33KT 1800 SHRA BR FEW006 BKN008 OVC012 20/19 Q1000 RMK 1ST006 6ST008 8CU012 A2956 VIS S-NW 1600M
RJAH 210231Z 17021KT 1600 +SHRA BR FEW006 BKN008 OVC012 20/19 Q1001 RMK 1ST006 6ST008 8CU012 A2957 MAX WIND 30KT VIS S-NW 1400M
RJAH 210224Z 17023KT 1800 SHRA BR FEW006 BKN008 OVC012 20/19 Q1001 RMK 1ST006 6ST008 8CU012 A2957 MAX WIND 31KT VIS S-NW 1600M
RJAH 210200Z 16023G38KT 2000 SHRA BR FEW006 BKN008 OVC012 20/18 Q1001
RJAH 210150Z 16022G34KT 2000 SHRA BR FEW006 BKN008 OVC012 20/18 Q1001 RMK 1ST006 6ST008 8CU012 A2958 VIS S-W 1800M
RJAH 210117Z 16022G34KT 2000 -SHRA BR FEW006 BKN008 OVC012 19/18 Q1002 RMK 1ST006 6ST008 8CU012 A2959 VIS W-NW 1800M
RJAH 210100Z 16023G33KT 1800 SHRA BR FEW006 BKN008 OVC012 19/18 Q1002
RJAH 210029Z 16019G32KT 1600 SHRA BR FEW006 BKN008 OVC012 19/18 Q1002 RMK 2ST006 6ST008 8CU012 A2961 VIS SW-NW 1400M
RJAH 210000Z 16017G33KT 1800 SHRA BR FEW006 BKN008 OVC012 19/18 Q1003
RJAH 202348Z 16016G28KT 1800 SHRA BR FEW006 BKN008 OVC012 19/18 Q1003 RMK 2ST006 6ST008 8CU012 A2962 VIS S-W 1500M
RJAH 202344Z 16016G28KT 2000 -SHRA BR FEW006 BKN008 OVC012 19/18 Q1003 RMK 1ST006 6ST008 8CU012 A2963
RJAH 202338Z 16015KT 2000 SHRA BR FEW006 BKN008 OVC012 19/17 Q1003 RMK 1ST006 6ST008 8CU012 A2964 MAX WIND 24KT
RJAH 202316Z 16014G24KT 1800 SHRA BR FEW006 BKN008 OVC012 19/17 Q1004 RMK 1ST006 6ST008 8CU012 A2965 VIS S-W 1600M
RJAH 202303Z 16013KT 1800 SHRA BR FEW006 BKN010 OVC012 19/17 Q1004 RMK 2ST006 5ST010 8CU012 A2966 MAX WIND 22KT VIS S-W 1500M
RJAH 202300Z 16014KT 2000 SHRA BR FEW006 SCT010 OVC012 19/17 Q1004
RJAH 202231Z 16017G27KT 2500 SHRA BR FEW006 SCT010 OVC012 19/17 Q1004 RMK 1ST006 4ST010 8CU012 A2967 VIS S-W 2000M
RJAH 202225Z 16015G27KT 3200 -SHRA BR SCT010 OVC012 19/17 Q1004 RMK 3ST010 8CU012 A2967 VIS S-W 2500M
RJAH 202210Z 16017KT 4000 -SHRA BR SCT010 BKN012 20/17 Q1005 RMK 4ST010 7CU012 A2968 MAX WIND 24KT VIS S-W 3000M
RJAH 202200Z 16015G25KT 130V200 6000 -SHRA SCT010 BKN012 20/17 Q1005
RJAH 202100Z 16013G24KT 6000 -SHRA SCT010 BKN012 19/17 Q1006
RJAH 202000Z 17015KT 140V200 5000 -SHRA BR SCT010 BKN012 20/16 Q1006
RJAH 201938Z 17014KT 140V200 6000 -SHRA FEW010 BKN012 20/16 Q1006 RMK 2ST010 7CU012 A2973 MAX WIND 22KT VIS S-SW 4000M
RJAH 201900Z 16014KT 6000 FEW010 BKN012 BKN015 19/16 Q1007
RJAH 201810Z 16013KT 130V190 6000 FEW010 BKN012 BKN015 19/16 Q1008 RMK 1ST010 5CU012 7CU015 A2977 VIS S-SW 4000M
RJAH 201800Z 17015KT 5000 -SHRA BR SCT012 BKN015 19/16 Q1008
RJAH 201700Z 16013KT 6000 -SHRA FEW012 BKN015 BKN050 20/16 Q1009
RJAH 201600Z 16011KT 6000 -SHRA FEW012 BKN015 19/16 Q1010
RJAH 201520Z 17009KT 140V200 6000 -SHRA FEW012 BKN015 19/16 Q1010 RMK 2CU012 7CU015 A2985 VIS S-SW 4000M
RJAH 201500Z 17009KT 7000 -SHRA FEW015 BKN020 19/16 Q1011
RJAH 201441Z 17010KT 7000 -SHRA FEW015 BKN020 19/16 Q1011 RMK 2CU015 7CU020 A2987 VIS S-SW 5KM
RJAH 201429Z 17010KT 130V200 7000 FEW015 BKN020 BKN070 20/15 Q1011 RMK 2CU015 5CU020 7AC070 A2987 VIS S-SW 5KM
RJAH 201400Z 17011KT 8000 SCT015 BKN070 19/15 Q1011
RJAH 201300Z 17009KT 9999 FEW020 BKN080 BKN120 19/15 Q1013
RJAH 201200Z 17009KT 9999 FEW020 BKN080 20/14 Q1013
RJAH 201100Z 17011KT 9999 SCT025 BKN080 20/15 Q1014
RJAH 201014Z 16010KT 9999 FEW020 BKN025 BKN080 20/14 Q1014 RMK 2CU020 5CU025 7AC080 A2995
RJAH 201000Z 16012KT 9999 SCT020 BKN070 BKN/// 20/14 Q1014
RJAH 200900Z 17014KT 9999 FEW020 BKN070 BKN250 20/14 Q1014
RJAH 200814Z 16017KT 9999 FEW020 SCT030 BKN050 21/14 Q1014 RMK 1CU020 4CU030 6SC050 A2995 MAX WIND 25KT
RJAH 200800Z 17014KT 9999 -SHRA FEW020 BKN030 BKN060 21/14 Q1014
RJAH 200751Z 17012KT 9999 -SHRA FEW020 SCT030 BKN060 20/14 Q1014 RMK 1CU020 3CU030 5SC060 A2996
RJAH 200700Z 17016KT 9999 FEW020 SCT035 BKN080 21/13 Q1014
RJAH 200600Z 17012KT 9999 FEW020 BKN030 BKN070 20/16 Q1014
RJAH 200538Z 18018G29KT 160V220 9999 -SHRA FEW020 BKN030 BKN070 23/13 Q1014 RMK 2CU020 5CU030 7AC070 A2997 VIS S 5KM
RJAH 200500Z 16015G25KT 9999 FEW030 BKN035 BKN070 22/13 Q1015
RJAH 200400Z 17016KT 9999 FEW030 BKN070 24/13 Q1016
RJAH 200300Z 18014KT 9999 FEW030 SCT035 BKN070 23/12 Q1016
RJAH 200200Z 16011KT 9999 FEW030 SCT035 BKN070 22/12 Q1016
RJAH 200150Z 16012KT 9999 FEW030 SCT035 BKN070 22/12 Q1016 RMK 1CU030 4CU035 5AC070 A3003
RJAH 200138Z 18012KT 130V210 9999 FEW030 SCT035 BKN250 22/12 Q1016 RMK 1CU030 3CU035 A3003
RJAH 200100Z 20010KT 160V240 9999 FEW025 SCT030 BKN060 22/13 Q1017
RJAH 200035Z 20010KT 170V230 9999 -SHRA FEW025 BKN030 BKN060 21/12 Q1017 RMK 1CU025 5CU030 5SC060 A3005
RJAH 200020Z 19009KT 150V210 9999 FEW025 BKN030 22/13 Q1017 RMK 1CU025 5CU030 A3005
RJAH 200000Z 19010KT 9999 FEW025 SCT030 BKN250 22/13 Q1017
RJAH 192300Z 19009KT 140V210 9999 FEW025 SCT040 BKN250 21/14 Q1018
RJAH 192219Z 20007KT 9999 FEW020 SCT250 20/14 Q1019 RMK 1CU020 A3009
RJAH 192200Z 21004KT 160V240 9999 FEW020 SCT030 BKN070 19/15 Q1019
RJAH 192142Z VRB02KT 9999 FEW020 SCT030 BKN070 19/15 Q1019 RMK 1CU020 3CU030 5AC070 A3011
RJAH 192100Z 00000KT 9999 SCT030 SCT070 17/15 Q1019
RJAH 192048Z 00000KT 9999 SCT030 SCT070 17/15 Q1019 RMK 3CU030 4AC070 A3012
RJAH 192021Z 26002KT 9999 SCT025 BKN070 16/14 Q1019 RMK 3CU025 5AC070 A3012
RJAH 192000Z VRB02KT 9999 FEW020 BKN025 BKN070 16/14 Q1019
RJAH 191938Z VRB01KT 8000 FEW020 BKN025 BKN060 15/14 Q1019 RMK 2CU020 5CU025 7SC060 A3011 VIS S-SW 6KM
RJAH 191900Z VRB01KT 9999 FEW020 SCT025 BKN060 15/14 Q1019
RJAH 191839Z VRB01KT 9999 -SHRA FEW020 SCT025 BKN060 15/14 Q1019 RMK 2CU020 3CU025 7SC060 A3011
RJAH 191800Z 01002KT 9999 FEW025 SCT030 BKN070 14/13 Q1019
RJAH 191724Z 31003KT 9999 FEW030 BKN070 14/13 Q1020 RMK 2CU030 5AC070 A3012
RJAH 191700Z 11003KT 9999 FEW030 SCT070 15/13 Q1020
RJAH 191600Z VRB01KT 9999 FEW030 BKN060 14/13 Q1020
RJAH 191500Z 04002KT 9999 FEW030 BKN060 14/12 Q1021
RJAH 191432Z 02001KT 9999 FEW040 BKN060 13/11 Q1021 RMK 1SC040 5SC060 A3017
RJAH 191400Z VRB01KT 9999 FEW040 14/12 Q1022
RJAH 191300Z 15002KT 9999 FEW040 17/12 Q1022
RJAH 191200Z 14004KT 9999 FEW040 17/11 Q1022
RJAH 191100Z 16004KT 9999 FEW040 SCT/// 18/11 Q1021
RJAH 191000Z 16009KT 9999 FEW040 19/11 Q1021
RJAH 190900Z 17011KT 9999 FEW040 20/11 Q1021
RJAH 190800Z 17012KT 130V190 9999 FEW040 22/10 Q1021
RJAH 190700Z 17012KT 120V190 9999 FEW040 23/10 Q1020
RJAH 190600Z 18015KT 9999 FEW040 24/12 Q1020
RJAH 190500Z 19015KT 150V210 9999 SCT040 SCT210 22/11 Q1021
RJAH 190400Z 18013KT 150V210 9999 SCT040 SCT180 BKN210 24/12 Q1021
RJAH 190300Z 21010KT 170V240 9999 SCT035 SCT180 24/11 Q1022
RJAH 190200Z 19009KT 150V230 9999 SCT040 BKN210 23/11 Q1023
RJAH 190100Z 18010KT 9999 SCT035 BKN230 21/11 Q1023
RJAH 190021Z 16009KT 140V210 9999 SCT030 SCT170 BKN230 22/12 Q1023 RMK 3CU030 3AC170 A3022
RJAH 190000Z 19009KT 150V230 9999 SCT030 BKN170 BKN230 21/11 Q1023
RJAH 182300Z 17008KT 9999 FEW030 BKN170 BKN230 20/12 Q1023